createdAt,value
2023-03-08T00:00:21.607Z,81.01
2023-03-08T00:01:21.603Z,81.11
2023-03-08T00:02:21.577Z,81.11
2023-03-08T00:03:21.576Z,81.11
2023-03-08T00:04:21.622Z,81.21
2023-03-08T00:05:21.545Z,81.21
2023-03-08T00:06:21.562Z,81.32
2023-03-08T00:07:21.528Z,81.32
2023-03-08T00:08:21.577Z,81.42
2023-03-08T00:09:21.516Z,81.42
2023-03-08T00:10:21.516Z,81.53
2023-03-08T00:11:21.494Z,81.53
2023-03-08T00:12:21.483Z,81.53
2023-03-08T00:13:21.464Z,81.53
2023-03-08T00:14:21.463Z,81.53
2023-03-08T00:15:21.441Z,81.63
2023-03-08T00:16:21.493Z,81.63
2023-03-08T00:17:21.415Z,81.63
2023-03-08T00:18:21.482Z,81.63
2023-03-08T00:19:21.433Z,81.67
2023-03-08T00:20:21.383Z,81.73
2023-03-08T00:21:21.370Z,81.73
2023-03-08T00:22:21.422Z,81.73
2023-03-08T00:23:21.346Z,81.73
2023-03-08T00:24:21.346Z,81.77
2023-03-08T00:25:21.330Z,81.87
2023-03-08T00:26:21.320Z,81.98
2023-03-08T00:27:21.306Z,81.98
2023-03-08T00:28:21.298Z,81.98
2023-03-08T00:29:21.356Z,82.08
2023-03-08T00:30:21.276Z,82.08
2023-03-08T00:31:21.305Z,82.08
2023-03-08T00:32:21.298Z,82.08
2023-03-08T00:33:21.237Z,82.08
2023-03-08T00:34:21.240Z,82.08
2023-03-08T00:35:21.298Z,81.98
2023-03-08T00:36:21.205Z,81.98
2023-03-08T00:37:21.195Z,81.98
2023-03-08T00:38:21.210Z,82.08
2023-03-08T00:39:21.195Z,82.08
2023-03-08T00:40:21.168Z,82.19
2023-03-08T00:41:21.163Z,82.19
2023-03-08T00:42:21.140Z,82.33
2023-03-08T00:43:21.134Z,82.33
2023-03-08T00:44:21.136Z,82.54
2023-03-08T00:45:21.110Z,82.54
2023-03-08T00:46:21.124Z,82.64
2023-03-08T00:47:21.094Z,82.75
2023-03-08T00:48:21.081Z,82.85
2023-03-08T00:49:21.069Z,82.85
2023-03-08T00:50:21.060Z,82.95
2023-03-08T00:51:21.049Z,82.95
2023-03-08T00:52:21.038Z,83.06
2023-03-08T00:53:21.022Z,83.09
2023-03-08T00:54:21.037Z,83.20
2023-03-08T00:55:21.005Z,83.31
2023-03-08T00:56:20.992Z,83.41
2023-03-08T00:57:20.988Z,83.41
2023-03-08T00:58:20.980Z,83.41
2023-03-08T00:59:20.963Z,83.41
2023-03-08T01:00:20.957Z,83.52
2023-03-08T01:01:21.052Z,83.52
2023-03-08T01:02:20.929Z,83.62
2023-03-08T01:03:20.915Z,83.52
2023-03-08T01:04:20.909Z,83.52
2023-03-08T01:05:20.905Z,83.58
2023-03-08T01:06:20.877Z,83.47
2023-03-08T01:07:20.881Z,83.47
2023-03-08T01:08:20.873Z,83.37
2023-03-08T01:09:20.851Z,83.47
2023-03-08T01:10:20.870Z,83.47
2023-03-08T01:11:20.833Z,83.41
2023-03-08T01:12:20.819Z,83.52
2023-03-08T01:13:20.801Z,83.52
2023-03-08T01:14:20.802Z,83.52
2023-03-08T01:15:20.776Z,83.62
2023-03-08T01:16:20.767Z,83.72
2023-03-08T01:17:20.762Z,83.72
2023-03-08T01:18:20.751Z,83.72
2023-03-08T01:19:20.738Z,83.72
2023-03-08T01:20:20.722Z,83.72
2023-03-08T01:21:20.720Z,83.83
2023-03-08T01:22:20.709Z,83.83
2023-03-08T01:23:20.689Z,83.93
2023-03-08T01:24:20.692Z,83.93
2023-03-08T01:25:20.667Z,83.93
2023-03-08T01:26:20.818Z,83.93
2023-03-08T01:27:20.653Z,84.03
2023-03-08T01:28:20.640Z,84.14
2023-03-08T01:29:20.632Z,84.14
2023-03-08T01:30:20.620Z,84.24
2023-03-08T01:31:20.617Z,84.24
2023-03-08T01:32:20.617Z,84.35
2023-03-08T01:33:20.586Z,84.35
2023-03-08T01:34:20.582Z,84.38
2023-03-08T01:35:20.565Z,84.49
2023-03-08T01:36:20.566Z,84.49
2023-03-08T01:37:20.548Z,84.60
2023-03-08T01:38:20.522Z,84.60
2023-03-08T01:39:20.518Z,84.70
2023-03-08T01:40:20.508Z,84.70
2023-03-08T01:41:20.513Z,84.70
2023-03-08T01:42:20.510Z,84.80
2023-03-08T01:43:20.470Z,84.91
2023-03-08T01:44:20.468Z,84.91
2023-03-08T01:45:20.451Z,85.01
2023-03-08T01:46:20.433Z,85.01
2023-03-08T01:47:20.427Z,85.11
2023-03-08T01:48:20.413Z,85.11
2023-03-08T01:49:20.406Z,85.22
2023-03-08T01:50:20.397Z,85.32
2023-03-08T01:51:20.390Z,85.43
2023-03-08T01:52:20.372Z,85.43
2023-03-08T01:53:20.371Z,85.43
2023-03-08T01:54:20.344Z,85.43
2023-03-08T01:55:20.333Z,85.53
2023-03-08T01:56:20.329Z,85.53
2023-03-08T01:57:20.309Z,85.53
2023-03-08T01:58:20.328Z,85.63
2023-03-08T01:59:20.295Z,85.53
2023-03-08T02:00:20.280Z,85.53
2023-03-08T02:01:20.345Z,85.53
2023-03-08T02:02:20.260Z,85.53
2023-03-08T02:03:20.253Z,85.53
2023-03-08T02:04:20.245Z,85.63
2023-03-08T02:05:20.232Z,85.53
2023-03-08T02:06:20.211Z,85.53
2023-03-08T02:07:20.205Z,85.53
2023-03-08T02:08:20.188Z,85.53
2023-03-08T02:09:20.185Z,85.63
2023-03-08T02:10:20.178Z,85.63
2023-03-08T02:11:20.155Z,85.74
2023-03-08T02:12:20.145Z,85.74
2023-03-08T02:13:20.140Z,85.74
2023-03-08T02:14:20.153Z,85.74
2023-03-08T02:15:20.184Z,85.84
2023-03-08T02:16:20.105Z,85.84
2023-03-08T02:17:20.103Z,85.84
2023-03-08T02:18:20.082Z,85.95
2023-03-08T02:19:20.077Z,85.84
2023-03-08T02:20:20.077Z,85.95
2023-03-08T02:21:20.062Z,85.95
2023-03-08T02:22:20.045Z,86.05
2023-03-08T02:23:20.037Z,86.09
2023-03-08T02:24:20.088Z,86.19
2023-03-08T02:25:20.014Z,86.19
2023-03-08T02:26:20.000Z,86.19
2023-03-08T02:27:19.982Z,86.30
2023-03-08T02:28:19.978Z,86.40
2023-03-08T02:29:19.969Z,86.40
2023-03-08T02:30:19.980Z,86.40
2023-03-08T02:31:19.937Z,86.40
2023-03-08T02:32:19.992Z,86.40
2023-03-08T02:33:19.925Z,86.40
2023-03-08T02:34:19.904Z,86.51
2023-03-08T02:35:19.893Z,86.51
2023-03-08T02:36:19.884Z,86.51
2023-03-08T02:37:19.880Z,86.51
2023-03-08T02:38:19.860Z,86.61
2023-03-08T02:39:19.878Z,86.61
2023-03-08T02:40:19.847Z,86.61
2023-03-08T02:41:19.830Z,86.72
2023-03-08T02:42:19.821Z,86.72
2023-03-08T02:43:19.833Z,86.82
2023-03-08T02:44:19.825Z,86.82
2023-03-08T02:45:19.790Z,86.93
2023-03-08T02:46:19.806Z,86.93
2023-03-08T02:47:19.767Z,86.93
2023-03-08T02:48:19.747Z,87.03
2023-03-08T02:49:19.735Z,87.03
2023-03-08T02:50:19.725Z,86.93
2023-03-08T02:51:19.716Z,86.93
2023-03-08T02:52:19.705Z,87.03
2023-03-08T02:53:19.702Z,87.03
2023-03-08T02:54:19.684Z,87.03
2023-03-08T02:55:19.665Z,87.03
2023-03-08T02:56:19.655Z,87.03
2023-03-08T02:57:19.643Z,87.03
2023-03-08T02:58:19.661Z,87.17
2023-03-08T02:59:19.628Z,87.17
2023-03-08T03:00:19.610Z,87.17
2023-03-08T03:01:19.681Z,87.17
2023-03-08T03:02:19.612Z,87.28
2023-03-08T03:03:19.579Z,87.17
2023-03-08T03:04:19.577Z,87.17
2023-03-08T03:05:19.569Z,87.17
2023-03-08T03:06:19.644Z,87.28
2023-03-08T03:07:19.531Z,87.28
2023-03-08T03:08:19.533Z,87.28
2023-03-08T03:09:19.506Z,87.28
2023-03-08T03:10:19.506Z,87.28
2023-03-08T03:11:19.490Z,87.28
2023-03-08T03:12:19.479Z,87.39
2023-03-08T03:13:19.464Z,87.39
2023-03-08T03:14:19.453Z,87.49
2023-03-08T03:15:19.446Z,87.49
2023-03-08T03:16:19.474Z,87.59
2023-03-08T03:17:19.412Z,87.49
2023-03-08T03:18:19.430Z,87.49
2023-03-08T03:19:19.390Z,87.49
2023-03-08T03:20:19.384Z,87.49
2023-03-08T03:21:19.366Z,87.59
2023-03-08T03:22:19.357Z,87.49
2023-03-08T03:23:19.350Z,87.49
2023-03-08T03:24:19.336Z,87.49
2023-03-08T03:25:19.339Z,87.45
2023-03-08T03:26:19.319Z,87.45
2023-03-08T03:27:19.309Z,87.49
2023-03-08T03:28:19.291Z,87.49
2023-03-08T03:29:19.273Z,87.49
2023-03-08T03:30:19.265Z,87.49
2023-03-08T03:31:19.295Z,87.49
2023-03-08T03:32:19.263Z,87.45
2023-03-08T03:33:19.241Z,87.45
2023-03-08T03:34:19.250Z,87.39
2023-03-08T03:35:19.212Z,87.49
2023-03-08T03:36:19.193Z,87.49
2023-03-08T03:37:19.182Z,87.45
2023-03-08T03:38:19.186Z,87.34
2023-03-08T03:39:19.160Z,87.45
2023-03-08T03:40:19.153Z,87.39
2023-03-08T03:41:19.150Z,87.39
2023-03-08T03:42:19.135Z,87.39
2023-03-08T03:43:19.136Z,87.28
2023-03-08T03:44:19.117Z,87.28
2023-03-08T03:45:19.109Z,87.39
2023-03-08T03:46:19.123Z,87.39
2023-03-08T03:47:19.072Z,87.39
2023-03-08T03:48:19.061Z,87.28
2023-03-08T03:49:19.059Z,87.24
2023-03-08T03:50:19.080Z,87.24
2023-03-08T03:51:19.030Z,87.17
2023-03-08T03:52:19.028Z,87.17
2023-03-08T03:53:19.110Z,87.28
2023-03-08T03:54:19.009Z,87.28
2023-03-08T03:55:18.998Z,87.28
2023-03-08T03:56:18.984Z,87.39
2023-03-08T03:57:18.962Z,87.39
2023-03-08T03:58:18.959Z,87.45
2023-03-08T03:59:18.952Z,87.34
2023-03-08T04:00:18.941Z,87.39
2023-03-08T04:01:18.933Z,87.39
2023-03-08T04:02:18.926Z,87.28
2023-03-08T04:03:19.062Z,87.28
2023-03-08T04:04:18.890Z,87.39
2023-03-08T04:05:18.882Z,87.39
2023-03-08T04:06:18.896Z,87.34
2023-03-08T04:07:18.868Z,87.24
2023-03-08T04:08:18.855Z,87.24
2023-03-08T04:09:18.844Z,87.24
2023-03-08T04:10:18.825Z,87.24
2023-03-08T04:11:18.814Z,87.13
2023-03-08T04:12:18.812Z,87.03
2023-03-08T04:13:18.793Z,87.03
2023-03-08T04:14:18.799Z,86.93
2023-03-08T04:15:18.853Z,86.93
2023-03-08T04:16:18.810Z,86.93
2023-03-08T04:17:18.812Z,86.82
2023-03-08T04:18:18.804Z,86.82
2023-03-08T04:19:18.735Z,86.82
2023-03-08T04:20:18.722Z,86.72
2023-03-08T04:21:18.699Z,86.72
2023-03-08T04:22:18.718Z,86.72
2023-03-08T04:23:18.673Z,86.61
2023-03-08T04:24:18.661Z,86.61
2023-03-08T04:25:18.650Z,86.51
2023-03-08T04:26:18.647Z,86.51
2023-03-08T04:27:18.635Z,86.40
2023-03-08T04:28:18.623Z,86.40
2023-03-08T04:29:18.612Z,86.40
2023-03-08T04:30:18.605Z,86.40
2023-03-08T04:31:18.617Z,86.40
2023-03-08T04:32:18.642Z,86.40
2023-03-08T04:33:18.573Z,86.30
2023-03-08T04:34:18.549Z,86.19
2023-03-08T04:35:18.548Z,86.09
2023-03-08T04:36:18.535Z,86.19
2023-03-08T04:37:18.519Z,86.09
2023-03-08T04:38:18.537Z,86.09
2023-03-08T04:39:18.500Z,86.09
2023-03-08T04:40:18.482Z,85.99
2023-03-08T04:41:18.502Z,85.99
2023-03-08T04:42:18.463Z,85.99
2023-03-08T04:43:18.447Z,85.99
2023-03-08T04:44:18.434Z,85.99
2023-03-08T04:45:18.425Z,85.99
2023-03-08T04:46:18.459Z,85.88
2023-03-08T04:47:18.408Z,85.88
2023-03-08T04:48:18.398Z,85.92
2023-03-08T04:49:18.384Z,85.92
2023-03-08T04:50:18.373Z,86.02
2023-03-08T04:51:18.480Z,86.02
2023-03-08T04:52:18.354Z,86.13
2023-03-08T04:53:18.340Z,86.02
2023-03-08T04:54:18.348Z,85.92
2023-03-08T04:55:18.321Z,85.92
2023-03-08T04:56:18.305Z,85.92
2023-03-08T04:57:20.749Z,85.92
2023-03-08T04:58:18.281Z,85.92
2023-03-08T04:59:18.266Z,85.92
2023-03-08T05:00:18.254Z,85.92
2023-03-08T05:01:18.256Z,85.92
2023-03-08T05:02:18.333Z,85.92
2023-03-08T05:03:18.220Z,86.02
2023-03-08T05:04:18.223Z,86.02
2023-03-08T05:05:18.371Z,86.02
2023-03-08T05:06:18.197Z,86.02
2023-03-08T05:07:18.188Z,86.02
2023-03-08T05:08:18.177Z,86.02
2023-03-08T05:09:18.162Z,86.13
2023-03-08T05:10:18.177Z,86.13
2023-03-08T05:11:18.136Z,86.13
2023-03-08T05:12:18.126Z,86.13
2023-03-08T05:13:18.109Z,86.02
2023-03-08T05:14:18.104Z,86.13
2023-03-08T05:15:18.099Z,86.13
2023-03-08T05:16:18.143Z,86.13
2023-03-08T05:17:18.073Z,86.13
2023-03-08T05:18:18.056Z,86.13
2023-03-08T05:19:18.047Z,86.13
2023-03-08T05:20:18.034Z,86.02
2023-03-08T05:21:18.034Z,85.92
2023-03-08T05:22:18.022Z,85.92
2023-03-08T05:23:18.004Z,85.82
2023-03-08T05:24:18.009Z,85.71
2023-03-08T05:25:17.977Z,85.71
2023-03-08T05:26:17.993Z,85.71
2023-03-08T05:27:17.969Z,85.82
2023-03-08T05:28:17.948Z,85.71
2023-03-08T05:29:17.971Z,85.71
2023-03-08T05:30:17.918Z,85.82
2023-03-08T05:31:18.059Z,85.82
2023-03-08T05:32:17.938Z,85.82
2023-03-08T05:33:17.885Z,85.82
2023-03-08T05:34:17.892Z,85.82
2023-03-08T05:35:17.887Z,85.82
2023-03-08T05:36:17.856Z,85.82
2023-03-08T05:37:17.844Z,85.82
2023-03-08T05:38:17.835Z,85.82
2023-03-08T05:39:17.825Z,85.92
2023-03-08T05:40:17.808Z,85.82
2023-03-08T05:41:17.804Z,85.82
2023-03-08T05:42:17.824Z,85.82
2023-03-08T05:43:17.776Z,85.82
2023-03-08T05:44:17.764Z,85.82
2023-03-08T05:45:17.856Z,85.71
2023-03-08T05:46:17.828Z,85.71
2023-03-08T05:47:17.738Z,85.82
2023-03-08T05:48:17.721Z,85.71
2023-03-08T05:49:17.710Z,85.82
2023-03-08T05:50:17.698Z,85.86
2023-03-08T05:51:17.681Z,85.86
2023-03-08T05:52:17.688Z,85.96
2023-03-08T05:53:17.657Z,86.07
2023-03-08T05:54:17.646Z,86.27
2023-03-08T05:55:17.660Z,86.52
2023-03-08T05:56:17.628Z,86.73
2023-03-08T05:57:17.609Z,86.84
2023-03-08T05:58:17.622Z,86.94
2023-03-08T05:59:17.599Z,87.04
2023-03-08T06:00:17.577Z,87.15
2023-03-08T06:01:17.574Z,87.15
2023-03-08T06:02:17.584Z,87.25
2023-03-08T06:03:17.667Z,87.25
2023-03-08T06:04:17.535Z,87.36
2023-03-08T06:05:17.542Z,87.46
2023-03-08T06:06:17.519Z,87.46
2023-03-08T06:07:17.576Z,87.46
2023-03-08T06:08:17.498Z,87.46
2023-03-08T06:09:17.548Z,87.46
2023-03-08T06:10:17.481Z,87.46
2023-03-08T06:11:17.533Z,87.46
2023-03-08T06:12:17.436Z,87.46
2023-03-08T06:13:17.438Z,87.46
2023-03-08T06:14:17.469Z,87.46
2023-03-08T06:15:17.465Z,87.42
2023-03-08T06:16:17.495Z,87.42
2023-03-08T06:17:17.398Z,87.32
2023-03-08T06:18:17.374Z,87.32
2023-03-08T06:19:17.427Z,87.32
2023-03-08T06:20:17.364Z,87.21
2023-03-08T06:21:17.392Z,87.11
2023-03-08T06:22:17.339Z,87.21
2023-03-08T06:23:17.324Z,87.11
2023-03-08T06:24:17.314Z,87.11
2023-03-08T06:25:18.811Z,87.11
2023-03-08T06:26:17.284Z,87.01
2023-03-08T06:27:17.285Z,86.90
2023-03-08T06:28:17.264Z,86.76
2023-03-08T06:29:17.313Z,86.65
2023-03-08T06:30:17.266Z,86.65
2023-03-08T06:31:17.254Z,86.65
2023-03-08T06:32:17.246Z,86.65
2023-03-08T06:33:17.247Z,86.45
2023-03-08T06:34:17.206Z,86.24
2023-03-08T06:35:17.254Z,86.13
2023-03-08T06:36:17.179Z,86.24
2023-03-08T06:37:17.186Z,86.30
2023-03-08T06:38:17.163Z,86.40
2023-03-08T06:39:17.199Z,86.09
2023-03-08T06:40:17.126Z,85.99
2023-03-08T06:41:17.124Z,86.05
2023-03-08T06:42:17.112Z,85.91
2023-03-08T06:43:17.123Z,85.98
2023-03-08T06:44:17.132Z,85.69
2023-03-08T06:45:17.136Z,85.23
2023-03-08T06:46:17.199Z,84.57
2023-03-08T06:47:17.058Z,83.84
2023-03-08T06:48:17.050Z,82.97
2023-03-08T06:49:17.046Z,82.04
2023-03-08T06:50:17.022Z,81.59
2023-03-08T06:51:17.024Z,80.96
2023-03-08T06:52:17.000Z,79.82
2023-03-08T06:53:16.996Z,79.23
2023-03-08T06:54:16.980Z,78.75
2023-03-08T06:55:16.973Z,79.34
2023-03-08T06:56:16.969Z,79.87
2023-03-08T06:57:16.950Z,80.21
2023-03-08T06:58:16.954Z,80.73
2023-03-08T06:59:16.932Z,81.04
2023-03-08T07:00:16.914Z,81.21
2023-03-08T07:01:16.910Z,81.11
2023-03-08T07:02:16.920Z,81.11
2023-03-08T07:03:16.879Z,80.97
2023-03-08T07:04:16.913Z,80.56
2023-03-08T07:05:16.858Z,80.45
2023-03-08T07:06:16.838Z,80.10
2023-03-08T07:07:16.912Z,80.10
2023-03-08T07:08:16.821Z,79.86
2023-03-08T07:09:16.806Z,79.33
2023-03-08T07:10:16.809Z,79.06
2023-03-08T07:11:16.786Z,79.06
2023-03-08T07:12:16.883Z,79.33
2023-03-08T07:13:16.770Z,78.92
2023-03-08T07:14:16.753Z,78.64
2023-03-08T07:15:16.748Z,78.75
2023-03-08T07:16:16.800Z,78.75
2023-03-08T07:17:16.720Z,78.82
2023-03-08T07:18:16.739Z,78.61
2023-03-08T07:19:16.702Z,78.71
2023-03-08T07:20:16.692Z,78.30
2023-03-08T07:21:16.668Z,78.16
2023-03-08T07:22:16.664Z,77.99
2023-03-08T07:23:16.663Z,77.99
2023-03-08T07:24:16.636Z,78.19
2023-03-08T07:25:16.631Z,78.40
2023-03-08T07:26:16.619Z,78.16
2023-03-08T07:27:16.600Z,77.71
2023-03-08T07:28:16.593Z,76.74
2023-03-08T07:29:16.586Z,76.08
2023-03-08T07:30:16.590Z,75.63
2023-03-08T07:31:16.562Z,75.12
2023-03-08T07:32:16.727Z,75.01
2023-03-08T07:33:16.552Z,74.81
2023-03-08T07:34:16.552Z,74.77
2023-03-08T07:35:16.535Z,74.25
2023-03-08T07:36:16.508Z,73.98
2023-03-08T07:37:16.491Z,72.84
2023-03-08T07:38:16.503Z,72.63
2023-03-08T07:39:16.467Z,72.87
2023-03-08T07:40:16.461Z,72.66
2023-03-08T07:41:16.450Z,72.74
2023-03-08T07:42:16.434Z,72.63
2023-03-08T07:43:16.426Z,70.88
2023-03-08T07:44:16.422Z,70.09
2023-03-08T07:45:16.403Z,69.37
2023-03-08T07:46:16.457Z,68.92
2023-03-08T07:47:16.384Z,68.75
2023-03-08T07:48:16.368Z,69.30
2023-03-08T07:49:16.365Z,67.76
2023-03-08T07:50:16.377Z,66.05
2023-03-08T07:51:16.396Z,63.83
2023-03-08T07:52:16.324Z,63.82
2023-03-08T07:53:16.327Z,64.84
2023-03-08T07:54:16.313Z,66.00
2023-03-08T07:55:16.308Z,66.07
2023-03-08T07:56:16.291Z,66.31
2023-03-08T07:57:16.269Z,66.62
2023-03-08T07:58:16.262Z,66.96
2023-03-08T07:59:16.259Z,67.16
2023-03-08T08:00:16.248Z,67.40
2023-03-08T08:01:16.235Z,67.64
2023-03-08T08:02:16.233Z,67.54
2023-03-08T08:03:16.253Z,67.92
2023-03-08T08:04:16.256Z,67.99
2023-03-08T08:05:16.263Z,67.34
2023-03-08T08:06:16.212Z,67.95
2023-03-08T08:07:16.172Z,68.47
2023-03-08T08:08:16.160Z,68.60
2023-03-08T08:09:16.142Z,68.60
2023-03-08T08:10:16.144Z,68.71
2023-03-08T08:11:16.122Z,68.40
2023-03-08T08:12:16.109Z,67.40
2023-03-08T08:13:16.093Z,67.54
2023-03-08T08:14:16.097Z,68.23
2023-03-08T08:15:16.086Z,68.10
2023-03-08T08:16:16.788Z,67.41
2023-03-08T08:17:16.068Z,66.43
2023-03-08T08:18:16.041Z,65.16
2023-03-08T08:19:16.029Z,64.92
2023-03-08T08:20:16.017Z,63.63
2023-03-08T08:21:16.016Z,61.81
2023-03-08T08:22:16.018Z,62.24
2023-03-08T08:23:15.986Z,62.92
2023-03-08T08:24:15.972Z,63.60
2023-03-08T08:25:15.960Z,64.97
2023-03-08T08:26:15.959Z,65.31
2023-03-08T08:27:15.936Z,66.07
2023-03-08T08:28:15.920Z,64.70
2023-03-08T08:29:15.910Z,64.16
2023-03-08T08:30:15.905Z,63.75
2023-03-08T08:31:15.947Z,63.54
2023-03-08T08:32:15.970Z,64.00
2023-03-08T08:33:15.878Z,62.67
2023-03-08T08:34:15.852Z,61.35
2023-03-08T08:35:15.846Z,59.14
2023-03-08T08:36:15.933Z,58.40
2023-03-08T08:37:15.822Z,57.14
2023-03-08T08:38:15.844Z,56.66
2023-03-08T08:39:15.803Z,57.23
2023-03-08T08:40:15.785Z,58.07
2023-03-08T08:41:15.781Z,58.95
2023-03-08T08:42:15.764Z,59.80
2023-03-08T08:43:15.764Z,59.39
2023-03-08T08:44:15.751Z,60.24
2023-03-08T08:45:15.740Z,60.50
2023-03-08T08:46:15.720Z,61.66
2023-03-08T08:47:15.709Z,62.66
2023-03-08T08:48:15.715Z,61.44
2023-03-08T08:49:15.693Z,60.18
2023-03-08T08:50:15.673Z,60.05
2023-03-08T08:51:15.666Z,59.55
2023-03-08T08:52:15.661Z,58.38
2023-03-08T08:53:15.684Z,56.56
2023-03-08T08:54:15.719Z,55.25
2023-03-08T08:55:15.622Z,53.74
2023-03-08T08:56:26.140Z,52.47
2023-03-08T08:57:15.602Z,51.33
2023-03-08T08:58:15.606Z,51.00
2023-03-08T08:59:15.590Z,49.59
2023-03-08T09:00:15.584Z,50.00
2023-03-08T09:01:15.556Z,49.09
2023-03-08T09:02:15.588Z,49.80
2023-03-08T09:03:15.530Z,49.74
2023-03-08T09:04:15.657Z,50.48
2023-03-08T09:05:15.584Z,51.14
2023-03-08T09:06:15.499Z,52.47
2023-03-08T09:07:15.487Z,51.52
2023-03-08T09:08:15.483Z,51.12
2023-03-08T09:09:15.461Z,50.79
2023-03-08T09:10:15.499Z,49.38
2023-03-08T09:11:15.453Z,51.42
2023-03-08T09:12:15.432Z,53.30
2023-03-08T09:13:15.465Z,54.30
2023-03-08T09:14:15.402Z,53.13
2023-03-08T09:15:15.405Z,51.95
2023-03-08T09:16:15.430Z,50.68
2023-03-08T09:17:15.376Z,51.17
2023-03-08T09:18:15.364Z,49.84
2023-03-08T09:19:15.366Z,50.09
2023-03-08T09:20:15.354Z,50.81
2023-03-08T09:21:15.344Z,50.35
2023-03-08T09:22:15.313Z,50.35
2023-03-08T09:23:15.343Z,50.04
2023-03-08T09:24:15.294Z,50.55
2023-03-08T09:25:15.282Z,50.80
2023-03-08T09:26:15.303Z,51.70
2023-03-08T09:27:15.273Z,50.45
2023-03-08T09:28:15.248Z,50.65
2023-03-08T09:29:15.248Z,50.55
2023-03-08T09:30:15.226Z,49.35
2023-03-08T09:31:15.315Z,50.26
2023-03-08T09:32:15.365Z,52.09
2023-03-08T09:33:15.194Z,53.89
2023-03-08T09:34:15.205Z,55.53
2023-03-08T09:35:15.170Z,55.20
2023-03-08T09:36:15.168Z,55.61
2023-03-08T09:37:15.152Z,54.94
2023-03-08T09:38:15.137Z,54.91
2023-03-08T09:39:15.139Z,53.46
2023-03-08T09:40:15.133Z,52.85
2023-03-08T09:41:15.110Z,53.46
2023-03-08T09:42:15.128Z,53.46
2023-03-08T09:43:15.096Z,52.97
2023-03-08T09:44:15.072Z,53.38
2023-03-08T09:45:15.071Z,53.07
2023-03-08T09:46:15.082Z,53.48
2023-03-08T09:47:15.038Z,53.28
2023-03-08T09:48:15.141Z,53.36
2023-03-08T09:49:15.220Z,52.94
2023-03-08T09:50:15.004Z,52.44
2023-03-08T09:51:15.004Z,52.82
2023-03-08T09:52:14.985Z,52.00
2023-03-08T09:53:14.975Z,52.10
2023-03-08T09:54:14.971Z,52.10
2023-03-08T09:55:14.971Z,52.31
2023-03-08T09:56:14.939Z,52.20
2023-03-08T09:57:14.919Z,52.23
2023-03-08T09:58:15.034Z,52.66
2023-03-08T09:59:14.896Z,53.20
2023-03-08T10:00:14.885Z,53.35
2023-03-08T10:01:14.885Z,54.18
2023-03-08T10:02:14.900Z,53.14
2023-03-08T10:03:14.928Z,54.69
2023-03-08T10:04:14.874Z,54.05
2023-03-08T10:05:14.824Z,53.63
2023-03-08T10:06:14.824Z,54.05
2023-03-08T10:07:14.811Z,54.27
2023-03-08T10:08:14.801Z,54.18
2023-03-08T10:09:14.803Z,53.76
2023-03-08T10:10:14.782Z,54.48
2023-03-08T10:11:14.759Z,54.18
2023-03-08T10:12:14.752Z,54.07
2023-03-08T10:13:14.742Z,54.18
2023-03-08T10:14:14.753Z,53.97
2023-03-08T10:15:14.715Z,53.97
2023-03-08T10:16:14.772Z,54.18
2023-03-08T10:17:14.689Z,54.07
2023-03-08T10:18:14.682Z,53.76
2023-03-08T10:19:14.680Z,53.46
2023-03-08T10:20:14.659Z,53.71
2023-03-08T10:21:14.656Z,54.22
2023-03-08T10:22:14.630Z,54.53
2023-03-08T10:23:14.635Z,54.12
2023-03-08T10:24:14.613Z,55.23
2023-03-08T10:25:14.604Z,56.90
2023-03-08T10:26:14.592Z,57.62
2023-03-08T10:27:14.583Z,57.39
2023-03-08T10:28:14.569Z,56.67
2023-03-08T10:29:14.569Z,56.98
2023-03-08T10:30:14.585Z,56.39
2023-03-08T10:31:14.572Z,56.90
2023-03-08T10:32:14.756Z,56.92
2023-03-08T10:33:14.532Z,57.36
2023-03-08T10:34:14.504Z,57.78
2023-03-08T10:35:14.497Z,57.57
2023-03-08T10:36:14.587Z,57.88
2023-03-08T10:37:14.478Z,58.09
2023-03-08T10:38:14.478Z,58.50
2023-03-08T10:39:14.452Z,58.55
2023-03-08T10:40:14.451Z,57.67
2023-03-08T10:41:14.463Z,56.61
2023-03-08T10:42:14.416Z,57.00
2023-03-08T10:43:14.406Z,55.84
2023-03-08T10:44:14.402Z,56.67
2023-03-08T10:45:14.388Z,55.92
2023-03-08T10:46:14.561Z,54.97
2023-03-08T10:47:14.368Z,54.33
2023-03-08T10:48:14.354Z,53.97
2023-03-08T10:49:14.331Z,54.05
2023-03-08T10:50:14.328Z,52.66
2023-03-08T10:51:14.342Z,52.41
2023-03-08T10:52:14.301Z,51.75
2023-03-08T10:53:14.293Z,51.06
2023-03-08T10:54:14.284Z,51.97
2023-03-08T10:55:14.276Z,51.67
2023-03-08T10:56:14.307Z,51.77
2023-03-08T10:57:14.263Z,51.82
2023-03-08T10:58:14.236Z,52.69
2023-03-08T10:59:14.226Z,53.50
2023-03-08T11:00:14.208Z,53.86
2023-03-08T11:01:14.204Z,53.00
2023-03-08T11:02:14.218Z,52.05
2023-03-08T11:03:14.185Z,51.85
2023-03-08T11:04:14.216Z,51.28
2023-03-08T11:05:14.152Z,52.30
2023-03-08T11:06:14.148Z,54.12
2023-03-08T11:07:14.136Z,55.20
2023-03-08T11:08:14.121Z,55.95
2023-03-08T11:09:14.113Z,56.69
2023-03-08T11:10:14.131Z,57.44
2023-03-08T11:11:14.151Z,57.75
2023-03-08T11:12:14.133Z,57.51
2023-03-08T11:13:14.077Z,57.28
2023-03-08T11:14:14.092Z,56.77
2023-03-08T11:15:14.050Z,56.07
2023-03-08T11:16:14.104Z,56.82
2023-03-08T11:17:14.029Z,57.51
2023-03-08T11:18:14.056Z,57.08
2023-03-08T11:19:14.043Z,56.64
2023-03-08T11:20:13.992Z,56.31
2023-03-08T11:21:13.990Z,55.12
2023-03-08T11:22:14.091Z,54.97
2023-03-08T11:23:13.949Z,55.69
2023-03-08T11:24:13.959Z,55.59
2023-03-08T11:25:13.946Z,55.66
2023-03-08T11:26:13.925Z,55.02
2023-03-08T11:27:13.929Z,54.05
2023-03-08T11:28:13.945Z,54.02
2023-03-08T11:29:13.998Z,53.17
2023-03-08T11:30:13.881Z,53.17
2023-03-08T11:31:13.883Z,51.46
2023-03-08T11:32:13.883Z,52.09
2023-03-08T11:33:14.049Z,51.69
2023-03-08T11:34:13.861Z,51.58
2023-03-08T11:35:13.816Z,51.07
2023-03-08T11:36:13.887Z,51.56
2023-03-08T11:37:13.804Z,51.17
2023-03-08T11:38:13.789Z,51.20
2023-03-08T11:39:13.781Z,52.06
2023-03-08T11:40:13.760Z,53.47
2023-03-08T11:41:13.758Z,54.61
2023-03-08T11:42:13.748Z,54.63
2023-03-08T11:43:13.733Z,54.84
2023-03-08T11:44:13.778Z,54.71
2023-03-08T11:45:13.710Z,54.58
2023-03-08T11:46:13.755Z,54.99
2023-03-08T11:47:13.692Z,54.27
2023-03-08T11:48:13.676Z,54.99
2023-03-08T11:49:13.671Z,54.48
2023-03-08T11:50:13.677Z,54.09
2023-03-08T11:51:13.639Z,54.91
2023-03-08T11:52:13.689Z,54.74
2023-03-08T11:53:13.619Z,55.04
2023-03-08T11:54:13.607Z,54.74
2023-03-08T11:55:13.637Z,54.32
2023-03-08T11:56:13.578Z,54.76
2023-03-08T11:57:13.575Z,54.94
2023-03-08T11:58:13.562Z,54.94
2023-03-08T11:59:13.548Z,55.43
2023-03-08T12:00:13.545Z,54.61
2023-03-08T12:01:13.518Z,54.43
2023-03-08T12:02:13.566Z,55.17
2023-03-08T12:03:13.607Z,55.51
2023-03-08T12:04:13.531Z,55.92
2023-03-08T12:05:13.583Z,56.46
2023-03-08T12:06:26.457Z,56.98
2023-03-08T12:07:13.675Z,57.39
2023-03-08T12:08:13.550Z,57.67
2023-03-08T12:09:13.507Z,57.26
2023-03-08T12:10:13.500Z,57.64
2023-03-08T12:11:13.415Z,56.25
2023-03-08T12:12:13.545Z,55.61
2023-03-08T12:13:13.397Z,55.20
2023-03-08T12:14:13.392Z,55.20
2023-03-08T12:15:13.391Z,55.53
2023-03-08T12:16:13.431Z,55.63
2023-03-08T12:17:13.628Z,56.05
2023-03-08T12:18:13.348Z,55.51
2023-03-08T12:19:13.314Z,54.76
2023-03-08T12:20:13.312Z,54.55
2023-03-08T12:21:13.325Z,54.66
2023-03-08T12:22:13.375Z,54.84
2023-03-08T12:23:13.274Z,54.74
2023-03-08T12:24:13.401Z,54.94
2023-03-08T12:25:13.254Z,54.82
2023-03-08T12:26:13.246Z,53.97
2023-03-08T12:27:13.223Z,53.56
2023-03-08T12:28:13.333Z,53.14
2023-03-08T12:29:13.277Z,52.92
2023-03-08T12:30:13.200Z,52.81
2023-03-08T12:31:26.638Z,52.92
2023-03-08T12:32:13.468Z,52.81
2023-03-08T12:33:13.430Z,52.17
2023-03-08T12:34:13.154Z,52.09
2023-03-08T12:35:13.148Z,52.56
2023-03-08T12:36:13.254Z,53.50
2023-03-08T12:37:13.148Z,54.07
2023-03-08T12:38:13.191Z,55.02
2023-03-08T12:39:13.105Z,55.23
2023-03-08T12:40:13.226Z,55.66
2023-03-08T12:41:13.091Z,56.07
2023-03-08T12:42:13.139Z,56.28
2023-03-08T12:43:13.065Z,56.71
2023-03-08T12:44:13.053Z,56.92
2023-03-08T12:45:13.025Z,57.00
2023-03-08T12:46:13.062Z,56.79
2023-03-08T12:47:13.008Z,56.05
2023-03-08T12:48:12.996Z,55.43
2023-03-08T12:49:13.001Z,55.35
2023-03-08T12:50:12.975Z,55.66
2023-03-08T12:51:12.982Z,56.25
2023-03-08T12:52:13.177Z,55.82